createdAt,value
2022-10-29T00:01:52.804Z,22.50
2022-10-29T00:04:19.326Z,22.49
2022-10-29T00:06:47.631Z,22.49
2022-10-29T00:09:14.116Z,22.47
2022-10-29T00:11:40.654Z,22.48
2022-10-29T00:14:07.097Z,22.48
2022-10-29T00:16:38.053Z,22.48
2022-10-29T00:19:04.949Z,22.47
2022-10-29T00:21:32.672Z,22.47
2022-10-29T00:23:59.125Z,22.46
2022-10-29T00:26:25.889Z,22.47
2022-10-29T00:28:52.508Z,22.51
2022-10-29T00:31:19.140Z,22.51
2022-10-29T00:33:46.122Z,22.53
2022-10-29T00:36:15.097Z,22.54
2022-10-29T00:38:41.736Z,22.54
2022-10-29T00:41:09.015Z,22.55
2022-10-29T00:43:36.707Z,22.55
2022-10-29T00:46:04.194Z,22.57
2022-10-29T00:48:33.567Z,22.56
2022-10-29T00:51:01.238Z,22.57
2022-10-29T00:53:30.185Z,22.58
2022-10-29T00:55:56.968Z,22.58
2022-10-29T00:58:23.412Z,22.58
2022-10-29T01:00:49.880Z,22.59
2022-10-29T01:03:16.325Z,22.59
2022-10-29T01:05:42.784Z,22.59
2022-10-29T01:08:09.224Z,22.59
2022-10-29T01:10:40.273Z,22.59
2022-10-29T01:13:44.332Z,22.61
2022-10-29T01:16:38.749Z,22.59
2022-10-29T01:19:29.179Z,22.59
2022-10-29T01:22:37.211Z,22.56
2022-10-29T01:25:41.078Z,22.54
2022-10-29T01:28:26.158Z,22.54
2022-10-29T01:31:00.482Z,22.54
2022-10-29T01:33:32.649Z,22.52
2022-10-29T01:36:05.055Z,22.53
2022-10-29T01:38:35.485Z,22.51
2022-10-29T01:41:19.688Z,22.51
2022-10-29T01:43:49.566Z,22.50
2022-10-29T01:46:24.517Z,22.47
2022-10-29T01:48:52.818Z,22.48
2022-10-29T01:51:22.194Z,22.46
2022-10-29T01:53:48.709Z,22.44
2022-10-29T01:56:15.172Z,22.42
2022-10-29T01:58:43.318Z,22.45
2022-10-29T02:01:23.025Z,22.43
2022-10-29T02:04:11.308Z,22.44
2022-10-29T02:06:49.961Z,22.47
2022-10-29T02:09:41.858Z,22.44
2022-10-29T02:12:19.996Z,22.46
2022-10-29T02:14:49.317Z,22.41
2022-10-29T02:17:15.927Z,22.44
2022-10-29T02:19:42.411Z,22.44
2022-10-29T02:22:08.872Z,22.44
2022-10-29T02:24:35.342Z,22.45
2022-10-29T02:27:01.802Z,22.44
2022-10-29T02:29:28.245Z,22.43
2022-10-29T02:31:54.707Z,22.43
2022-10-29T02:34:21.138Z,22.43
2022-10-29T02:36:47.880Z,22.42
2022-10-29T02:39:14.323Z,22.42
2022-10-29T02:41:41.167Z,22.43
2022-10-29T02:44:07.626Z,22.40
2022-10-29T02:46:39.403Z,22.41
2022-10-29T02:49:06.806Z,22.39
2022-10-29T02:51:33.378Z,22.40
2022-10-29T02:53:59.827Z,22.40
2022-10-29T02:56:26.272Z,22.41
2022-10-29T02:58:52.783Z,22.41
2022-10-29T03:01:19.347Z,22.42
2022-10-29T03:03:45.846Z,22.43
2022-10-29T03:06:13.750Z,22.43
2022-10-29T03:08:40.204Z,22.45
2022-10-29T03:11:06.659Z,22.43
2022-10-29T03:13:33.189Z,22.44
2022-10-29T03:15:59.658Z,22.43
2022-10-29T03:18:26.110Z,22.44
2022-10-29T03:20:52.870Z,22.44
2022-10-29T03:23:19.373Z,22.44
2022-10-29T03:25:55.529Z,22.44
2022-10-29T03:28:23.326Z,22.40
2022-10-29T03:30:49.765Z,22.40
2022-10-29T03:33:16.229Z,22.37
2022-10-29T03:35:42.805Z,22.36
2022-10-29T03:38:09.367Z,22.35
2022-10-29T03:40:35.808Z,22.34
2022-10-29T03:43:02.271Z,22.35
2022-10-29T03:45:28.721Z,22.34
2022-10-29T03:47:56.507Z,22.33
2022-10-29T03:50:23.173Z,22.34
2022-10-29T03:52:49.881Z,22.33
2022-10-29T03:56:28.147Z,22.32
2022-10-29T03:58:54.560Z,22.32
2022-10-29T04:01:21.071Z,22.32
2022-10-29T04:03:47.612Z,22.32
2022-10-29T04:06:15.202Z,22.33
2022-10-29T04:08:41.998Z,22.34
2022-10-29T04:11:12.184Z,22.34
2022-10-29T04:13:38.837Z,22.33
2022-10-29T04:16:05.610Z,22.33
2022-10-29T04:18:32.033Z,22.32
2022-10-29T04:29:22.144Z,22.34
2022-10-29T04:31:49.013Z,22.34
2022-10-29T04:34:15.593Z,22.34
2022-10-29T04:36:42.051Z,22.33
2022-10-29T04:39:08.518Z,22.33
2022-10-29T04:41:35.073Z,22.34
2022-10-29T04:44:02.201Z,22.34
2022-10-29T04:46:28.667Z,22.35
2022-10-29T04:48:55.488Z,22.34
2022-10-29T04:51:23.236Z,22.34
2022-10-29T04:53:49.742Z,22.34
2022-10-29T04:56:16.440Z,22.35
2022-10-29T04:58:42.893Z,22.33
2022-10-29T05:01:09.462Z,22.31
2022-10-29T05:03:36.119Z,22.29
2022-10-29T05:06:04.192Z,22.29
2022-10-29T05:08:30.695Z,22.26
2022-10-29T05:10:57.185Z,22.26
2022-10-29T05:13:31.067Z,22.25
2022-10-29T05:15:57.522Z,22.24
2022-10-29T05:18:23.978Z,22.23
2022-10-29T05:20:54.796Z,22.23
2022-10-29T05:23:21.273Z,22.23
2022-10-29T05:25:52.030Z,22.22
2022-10-29T05:28:20.066Z,22.24
2022-10-29T05:30:47.596Z,22.22
2022-10-29T05:33:18.585Z,22.23
2022-10-29T05:35:45.151Z,22.23
2022-10-29T05:38:12.215Z,22.25
2022-10-29T05:40:39.109Z,22.26
2022-10-29T05:43:05.794Z,22.24
2022-10-29T05:45:32.275Z,22.24
2022-10-29T05:47:59.860Z,22.26
2022-10-29T05:50:26.831Z,22.24
2022-10-29T05:53:00.656Z,22.25
2022-10-29T05:55:27.450Z,22.25
2022-10-29T05:58:00.057Z,22.26
2022-10-29T06:00:27.409Z,22.26
2022-10-29T06:02:54.109Z,22.26
2022-10-29T06:05:20.831Z,22.24
2022-10-29T06:07:47.309Z,22.25
2022-10-29T06:10:13.797Z,22.25
2022-10-29T06:12:40.646Z,22.23
2022-10-29T06:15:07.719Z,22.18
2022-10-29T06:17:34.455Z,22.25
2022-10-29T06:20:02.446Z,22.26
2022-10-29T06:22:28.908Z,22.27
2022-10-29T06:24:55.374Z,22.29
2022-10-29T06:27:21.826Z,22.31
2022-10-29T06:29:48.421Z,22.31
2022-10-29T06:32:14.881Z,22.33
2022-10-29T06:34:41.366Z,22.34
2022-10-29T06:37:07.849Z,22.36
2022-10-29T06:39:34.321Z,22.38
2022-10-29T06:42:00.773Z,22.39
2022-10-29T06:44:27.221Z,22.39
2022-10-29T06:46:53.733Z,22.41
2022-10-29T06:49:20.703Z,22.40
2022-10-29T06:51:47.443Z,22.39
2022-10-29T06:54:13.970Z,22.42
2022-10-29T06:56:40.414Z,22.38
2022-10-29T06:59:07.085Z,22.38
2022-10-29T07:01:33.678Z,22.38
2022-10-29T07:04:00.398Z,22.39
2022-10-29T07:06:26.845Z,22.30
2022-10-29T07:08:53.281Z,22.23
2022-10-29T07:11:19.730Z,22.20
2022-10-29T07:13:46.250Z,22.15
2022-10-29T07:16:12.710Z,22.11
2022-10-29T07:18:39.233Z,22.12
2022-10-29T07:21:05.908Z,22.12
2022-10-29T07:23:32.413Z,22.11
2022-10-29T07:25:58.870Z,22.12
2022-10-29T07:28:25.559Z,22.15
2022-10-29T07:30:52.580Z,22.17
2022-10-29T07:33:19.141Z,22.11
2022-10-29T07:35:45.807Z,22.15
2022-10-29T07:38:12.464Z,22.11
2022-10-29T07:40:39.336Z,22.09
2022-10-29T07:43:05.957Z,22.06
2022-10-29T07:45:32.790Z,22.08
2022-10-29T07:48:04.087Z,22.06
2022-10-29T07:50:31.118Z,22.03
2022-10-29T07:53:01.056Z,22.01
2022-10-29T07:58:01.259Z,22.01
2022-10-29T08:00:31.863Z,21.98
2022-10-29T08:02:58.364Z,21.95
2022-10-29T08:05:25.497Z,21.99
2022-10-29T08:07:55.655Z,21.99
2022-10-29T08:10:23.072Z,22.00
2022-10-29T08:12:53.748Z,22.02
2022-10-29T08:15:20.479Z,22.07
2022-10-29T08:17:46.941Z,22.06
2022-10-29T08:20:13.881Z,22.08
2022-10-29T08:22:40.379Z,22.09
2022-10-29T08:25:07.209Z,22.12
2022-10-29T08:27:33.730Z,22.09
2022-10-29T08:30:00.236Z,22.10
2022-10-29T08:32:26.731Z,22.12
2022-10-29T08:34:53.207Z,22.14
2022-10-29T08:37:19.735Z,22.13
2022-10-29T08:39:46.199Z,22.16
2022-10-29T08:42:34.944Z,22.17
2022-10-29T08:45:16.601Z,22.18
2022-10-29T08:47:59.270Z,22.18
2022-10-29T08:50:28.926Z,22.22
2022-10-29T08:53:19.360Z,22.28
2022-10-29T08:55:41.889Z,22.28
2022-10-29T08:58:18.633Z,22.25
2022-10-29T09:00:45.137Z,22.25
2022-10-29T09:03:12.418Z,22.24
2022-10-29T09:06:04.794Z,22.22
2022-10-29T09:08:38.155Z,22.22
2022-10-29T09:11:26.851Z,22.19
2022-10-29T09:14:45.322Z,22.20
2022-10-29T09:17:19.029Z,22.18
2022-10-29T09:19:52.977Z,22.16
2022-10-29T09:22:50.855Z,22.17
2022-10-29T09:25:39.150Z,22.18
2022-10-29T09:28:21.338Z,22.18
2022-10-29T09:31:05.945Z,22.20
2022-10-29T09:33:32.462Z,22.19
2022-10-29T09:35:59.481Z,22.18
2022-10-29T09:38:29.659Z,22.21
2022-10-29T09:41:00.422Z,22.22
2022-10-29T09:43:45.289Z,22.26
2022-10-29T09:46:26.846Z,22.27
2022-10-29T09:52:03.997Z,22.37
2022-10-29T09:54:30.870Z,22.45
2022-10-29T09:56:57.695Z,22.54
2022-10-29T09:59:35.068Z,22.68
2022-10-29T10:02:01.656Z,22.80
2022-10-29T10:04:36.175Z,22.84
2022-10-29T10:07:11.925Z,22.81
2022-10-29T10:09:57.713Z,22.83
2022-10-29T10:12:36.267Z,22.98
2022-10-29T10:15:16.276Z,22.99
2022-10-29T10:18:05.687Z,23.01
2022-10-29T10:20:37.876Z,23.03
2022-10-29T10:23:22.318Z,23.02
2022-10-29T10:25:48.981Z,23.05
2022-10-29T10:28:18.250Z,23.10
2022-10-29T10:30:45.927Z,23.11
2022-10-29T10:35:49.521Z,23.16
2022-10-29T10:38:15.992Z,23.20
2022-10-29T10:40:42.525Z,23.24
2022-10-29T10:43:20.002Z,23.24
2022-10-29T10:45:46.504Z,23.25
2022-10-29T10:48:13.138Z,23.30
2022-10-29T10:50:39.694Z,23.30
2022-10-29T10:53:17.266Z,23.33
2022-10-29T10:55:51.500Z,23.35
2022-10-29T10:58:20.256Z,23.26
2022-10-29T11:01:08.418Z,23.28
2022-10-29T11:03:56.795Z,23.22
2022-10-29T11:06:25.834Z,23.25
2022-10-29T11:09:00.849Z,23.25
2022-10-29T11:11:36.589Z,23.25
2022-10-29T11:14:22.215Z,23.20
2022-10-29T11:16:58.499Z,23.23
2022-10-29T11:19:31.318Z,23.36
2022-10-29T11:22:28.103Z,23.45
2022-10-29T11:25:15.583Z,23.47
2022-10-29T11:27:53.268Z,23.43
2022-10-29T11:30:19.789Z,23.45
2022-10-29T11:32:56.656Z,23.41
2022-10-29T11:35:45.991Z,23.47
2022-10-29T11:38:31.967Z,23.04
2022-10-29T11:41:04.984Z,23.39
2022-10-29T11:43:32.106Z,23.56
2022-10-29T11:46:12.321Z,23.61
2022-10-29T11:48:49.235Z,23.60
2022-10-29T11:51:26.237Z,23.61
2022-10-29T11:54:04.634Z,23.61
2022-10-29T11:56:48.531Z,23.51
2022-10-29T11:59:39.274Z,23.44
2022-10-29T12:02:29.643Z,23.36
2022-10-29T12:05:02.030Z,23.35
2022-10-29T12:07:53.578Z,23.30
2022-10-29T12:10:31.976Z,23.25
2022-10-29T12:13:03.780Z,23.26
2022-10-29T12:15:38.069Z,23.26
2022-10-29T12:18:16.699Z,23.30
2022-10-29T12:20:45.710Z,23.30
2022-10-29T12:23:25.237Z,23.25
2022-10-29T12:26:09.592Z,23.34
2022-10-29T12:28:39.604Z,23.44
2022-10-29T12:31:05.968Z,23.50
2022-10-29T12:33:59.483Z,23.57
2022-10-29T12:36:37.803Z,23.58
2022-10-29T12:39:05.520Z,23.61
2022-10-29T12:41:36.720Z,23.62
2022-10-29T12:44:12.143Z,23.62
2022-10-29T12:46:41.642Z,23.61
2022-10-29T12:49:10.610Z,23.57
2022-10-29T12:54:54.985Z,23.36
2022-10-29T12:57:34.830Z,23.32
2022-10-29T13:00:23.108Z,23.27
2022-10-29T13:02:56.459Z,23.24
2022-10-29T13:05:26.174Z,23.20
2022-10-29T13:07:59.289Z,23.17
2022-10-29T13:10:47.338Z,23.17
2022-10-29T13:13:13.658Z,23.15
2022-10-29T13:15:43.750Z,23.12
2022-10-29T13:18:13.107Z,23.15
2022-10-29T13:20:40.775Z,23.15
2022-10-29T13:23:29.023Z,23.19
2022-10-29T13:25:58.820Z,23.25
2022-10-29T13:28:25.169Z,23.25
2022-10-29T13:30:53.186Z,23.23
2022-10-29T13:33:28.742Z,23.24
2022-10-29T13:36:05.647Z,23.14
2022-10-29T13:39:04.203Z,23.17
2022-10-29T13:41:40.231Z,23.17
2022-10-29T13:44:10.801Z,23.16
2022-10-29T13:46:44.776Z,23.16
2022-10-29T13:49:20.824Z,23.08
2022-10-29T13:52:00.274Z,23.07
2022-10-29T13:54:54.251Z,23.06
2022-10-29T13:57:37.024Z,23.03
2022-10-29T14:00:08.396Z,23.02
2022-10-29T14:02:46.986Z,23.02
2022-10-29T14:05:33.878Z,22.93
2022-10-29T14:08:01.443Z,22.96
2022-10-29T14:13:28.369Z,22.91
2022-10-29T14:16:06.993Z,22.90
2022-10-29T14:18:40.703Z,22.86
2022-10-29T14:21:21.934Z,22.91
2022-10-29T14:23:58.276Z,22.87
2022-10-29T14:26:25.034Z,22.86
2022-10-29T14:28:52.089Z,22.87
2022-10-29T14:31:22.318Z,22.86
2022-10-29T14:33:59.057Z,22.85
2022-10-29T14:36:42.460Z,22.85
2022-10-29T14:39:18.093Z,22.84
2022-10-29T14:41:47.374Z,22.82
2022-10-29T14:44:24.570Z,22.81
2022-10-29T14:47:00.840Z,22.81
2022-10-29T14:49:27.310Z,22.77
2022-10-29T14:51:59.146Z,22.78
2022-10-29T14:54:26.940Z,22.75
2022-10-29T14:57:01.878Z,22.74
2022-10-29T14:59:29.497Z,22.76
2022-10-29T15:02:05.664Z,22.73
2022-10-29T15:04:49.180Z,22.71
2022-10-29T15:07:25.312Z,22.73
2022-10-29T15:10:03.541Z,22.99
2022-10-29T15:12:35.083Z,23.07
2022-10-29T15:15:16.847Z,23.02
2022-10-29T15:18:13.640Z,22.96
2022-10-29T15:20:39.985Z,22.84
2022-10-29T15:23:06.470Z,22.85
2022-10-29T15:25:36.940Z,22.89
2022-10-29T15:28:03.522Z,22.90
2022-10-29T15:30:35.229Z,22.92
2022-10-29T15:33:08.594Z,22.95
2022-10-29T15:35:36.036Z,22.94
2022-10-29T15:38:02.597Z,22.91
2022-10-29T15:40:29.060Z,22.95
2022-10-29T15:42:56.011Z,22.93
2022-10-29T15:45:24.630Z,22.96
2022-10-29T15:48:12.123Z,22.98
2022-10-29T15:50:40.908Z,23.00
2022-10-29T15:53:11.778Z,23.00
2022-10-29T15:55:38.524Z,23.03
2022-10-29T15:58:06.707Z,23.06
2022-10-29T16:00:33.266Z,23.07
2022-10-29T16:03:17.410Z,23.07
2022-10-29T16:05:46.925Z,23.09
2022-10-29T16:08:33.551Z,23.11
2022-10-29T16:11:00.988Z,23.14
2022-10-29T16:13:28.551Z,23.15
2022-10-29T16:15:55.019Z,23.19
2022-10-29T16:18:21.526Z,23.21
2022-10-29T16:20:48.256Z,23.29
2022-10-29T16:23:14.911Z,23.25
2022-10-29T16:28:07.699Z,23.33
2022-10-29T16:30:34.182Z,23.32
2022-10-29T16:33:01.160Z,23.33
2022-10-29T16:35:28.333Z,23.32
2022-10-29T16:37:55.335Z,23.35
2022-10-29T16:40:23.772Z,23.38
2022-10-29T16:42:50.397Z,23.35
2022-10-29T16:45:24.727Z,23.39
2022-10-29T16:47:52.205Z,23.38
2022-10-29T16:50:27.086Z,23.40
2022-10-29T16:52:57.709Z,23.41
2022-10-29T16:55:24.892Z,23.40
2022-10-29T16:57:51.380Z,23.43
2022-10-29T17:00:17.910Z,23.46
2022-10-29T17:02:45.688Z,23.46
2022-10-29T17:05:12.983Z,23.55
2022-10-29T17:07:39.555Z,23.61
2022-10-29T17:10:06.462Z,23.63
2022-10-29T17:12:33.131Z,23.61
2022-10-29T17:14:59.594Z,23.64
2022-10-29T17:17:26.059Z,23.66
2022-10-29T17:19:53.725Z,23.70
2022-10-29T17:22:20.191Z,23.69
2022-10-29T17:24:46.658Z,23.66
2022-10-29T17:27:13.182Z,23.71
2022-10-29T17:29:39.667Z,23.73
2022-10-29T17:32:06.889Z,23.73
2022-10-29T17:34:33.734Z,23.71
2022-10-29T17:37:00.197Z,23.74
2022-10-29T17:39:26.668Z,23.69
2022-10-29T17:41:53.173Z,23.74
2022-10-29T17:44:19.683Z,23.76
2022-10-29T17:46:46.139Z,23.80
2022-10-29T17:49:12.716Z,23.79
2022-10-29T17:51:39.175Z,23.76
2022-10-29T17:54:05.714Z,23.74
2022-10-29T17:56:32.422Z,23.67
2022-10-29T17:58:58.921Z,23.61
2022-10-29T18:01:25.531Z,23.61
2022-10-29T18:03:52.090Z,23.57
2022-10-29T18:06:18.549Z,23.54
2022-10-29T18:08:45.218Z,23.54
2022-10-29T18:11:16.917Z,23.50
2022-10-29T18:13:43.982Z,23.49
2022-10-29T18:16:11.510Z,23.47
2022-10-29T18:18:48.337Z,23.45
2022-10-29T18:21:25.550Z,23.45
2022-10-29T18:23:52.302Z,23.58
2022-10-29T18:26:47.919Z,23.53
2022-10-29T18:29:14.378Z,23.51
2022-10-29T18:31:44.870Z,23.48
2022-10-29T18:34:11.697Z,23.45
2022-10-29T18:36:39.071Z,23.47
2022-10-29T18:39:06.138Z,23.46
2022-10-29T18:41:32.760Z,23.50
2022-10-29T18:44:00.541Z,23.51
2022-10-29T18:46:27.133Z,23.50
2022-10-29T18:48:53.919Z,23.49
2022-10-29T18:51:25.387Z,23.49
2022-10-29T18:53:52.726Z,23.51
2022-10-29T18:56:20.451Z,23.51
2022-10-29T18:58:46.932Z,23.48
2022-10-29T19:01:17.011Z,23.51
2022-10-29T19:03:43.625Z,23.50
2022-10-29T19:06:11.558Z,23.47
2022-10-29T19:08:39.709Z,23.47
2022-10-29T19:11:07.967Z,23.44
2022-10-29T19:13:34.446Z,23.46
2022-10-29T19:16:05.563Z,23.43
2022-10-29T19:18:32.135Z,23.43
2022-10-29T19:21:05.484Z,23.44
2022-10-29T19:23:32.134Z,23.44
2022-10-29T19:26:02.939Z,23.42
2022-10-29T19:28:29.899Z,23.42
2022-10-29T19:31:04.014Z,23.43
2022-10-29T19:33:30.591Z,23.41
2022-10-29T19:35:57.231Z,23.39
2022-10-29T19:38:23.890Z,23.41
2022-10-29T19:40:50.574Z,23.41
2022-10-29T19:43:17.061Z,23.41
2022-10-29T19:45:43.533Z,23.38
2022-10-29T19:48:09.990Z,23.39
2022-10-29T19:50:36.502Z,23.36
2022-10-29T19:53:03.000Z,23.32
2022-10-29T19:55:29.721Z,23.38
2022-10-29T19:57:56.182Z,23.37
2022-10-29T20:00:23.769Z,23.36
2022-10-29T20:02:53.335Z,23.35
2022-10-29T20:05:20.623Z,23.33
2022-10-29T20:07:49.069Z,23.33
2022-10-29T20:10:18.645Z,23.31
2022-10-29T20:12:45.112Z,23.29
2022-10-29T20:15:12.074Z,23.32
2022-10-29T20:17:38.607Z,23.29
2022-10-29T20:20:06.067Z,23.30
2022-10-29T20:22:32.523Z,23.32
2022-10-29T20:24:58.979Z,23.28
2022-10-29T20:27:25.433Z,23.21
2022-10-29T20:29:51.888Z,23.24
2022-10-29T20:32:18.345Z,23.24
2022-10-29T20:34:44.810Z,23.22
2022-10-29T20:37:11.269Z,23.20
2022-10-29T20:39:37.730Z,23.20
2022-10-29T20:42:04.202Z,23.19
2022-10-29T20:44:30.674Z,23.21
2022-10-29T20:46:57.134Z,23.20
2022-10-29T20:49:23.598Z,23.18
2022-10-29T20:51:50.055Z,23.18
2022-10-29T20:54:16.526Z,23.17
2022-10-29T20:56:43.018Z,23.18
2022-10-29T20:59:09.531Z,23.18
2022-10-29T21:01:36.026Z,23.16
2022-10-29T21:04:02.642Z,23.17
2022-10-29T21:06:29.881Z,23.15
2022-10-29T21:08:56.457Z,23.10
2022-10-29T21:11:23.255Z,23.12
2022-10-29T21:13:49.736Z,23.13
2022-10-29T21:16:27.294Z,23.12
2022-10-29T21:18:56.343Z,23.14
2022-10-29T21:21:22.883Z,23.12
2022-10-29T21:23:49.402Z,23.03
2022-10-29T21:26:17.467Z,23.09
2022-10-29T21:28:43.968Z,23.08
2022-10-29T21:31:10.491Z,23.07
2022-10-29T21:33:37.143Z,23.09
2022-10-29T21:36:03.763Z,23.08
2022-10-29T21:38:30.387Z,23.10
2022-10-29T21:40:56.882Z,23.08
2022-10-29T21:43:23.870Z,23.08
2022-10-29T21:45:50.772Z,23.07
2022-10-29T21:48:17.360Z,23.07
2022-10-29T21:50:43.883Z,23.06
2022-10-29T21:53:10.638Z,23.06
2022-10-29T21:55:37.126Z,23.07
2022-10-29T21:58:03.681Z,23.06
2022-10-29T22:00:30.622Z,23.05
2022-10-29T22:03:04.331Z,23.05
2022-10-29T22:05:31.323Z,23.08
2022-10-29T22:07:58.453Z,23.04
2022-10-29T22:10:25.426Z,22.92
2022-10-29T22:12:52.034Z,22.90
2022-10-29T22:15:18.494Z,22.87
2022-10-29T22:17:44.942Z,22.85
2022-10-29T22:20:11.746Z,22.81
2022-10-29T22:22:38.218Z,22.81
2022-10-29T22:25:05.266Z,22.79
2022-10-29T22:27:31.713Z,22.77
2022-10-29T22:29:58.193Z,22.74
2022-10-29T22:32:24.678Z,22.74
2022-10-29T22:34:51.194Z,22.74
2022-10-29T22:37:17.654Z,22.70
2022-10-29T22:39:44.833Z,22.69
2022-10-29T22:42:11.326Z,22.70
2022-10-29T22:44:37.867Z,22.69
2022-10-29T22:47:04.410Z,22.65
2022-10-29T22:49:30.890Z,22.63
2022-10-29T22:52:00.577Z,22.64
2022-10-29T22:54:28.309Z,22.62
2022-10-29T22:56:54.769Z,22.63
2022-10-29T22:59:21.267Z,22.61
2022-10-29T23:01:47.903Z,22.62
2022-10-29T23:04:15.605Z,22.59
2022-10-29T23:06:42.064Z,22.57
2022-10-29T23:09:08.594Z,22.57
2022-10-29T23:11:38.891Z,22.55
2022-10-29T23:14:05.512Z,22.53
2022-10-29T23:16:32.861Z,22.54
2022-10-29T23:19:01.087Z,22.52
2022-10-29T23:21:27.917Z,22.51
2022-10-29T23:23:54.526Z,22.50
2022-10-29T23:26:21.718Z,22.48
2022-10-29T23:28:49.012Z,22.48
2022-10-29T23:31:17.074Z,22.48
2022-10-29T23:33:48.641Z,22.47
2022-10-29T23:36:15.293Z,22.47
2022-10-29T23:38:41.818Z,22.44
2022-10-29T23:41:08.316Z,22.41
2022-10-29T23:43:34.832Z,22.42
2022-10-29T23:46:01.364Z,22.42
2022-10-29T23:48:27.900Z,22.41
2022-10-29T23:50:54.478Z,22.39
2022-10-29T23:53:20.962Z,22.37
2022-10-29T23:55:47.726Z,22.39
2022-10-29T23:58:14.319Z,22.38
